createdAt,value
2018-08-16T00:00:39.167Z,13.50
2018-08-16T00:01:39.164Z,13.70
2018-08-16T00:02:39.147Z,13.20
2018-08-16T00:03:39.156Z,13.50
2018-08-16T00:04:39.129Z,14.30
2018-08-16T00:05:39.121Z,14.10
2018-08-16T00:06:39.102Z,14.10
2018-08-16T00:07:39.089Z,13.80
2018-08-16T00:08:39.106Z,13.70
2018-08-16T00:09:39.079Z,13.50
2018-08-16T00:10:39.065Z,14.10
2018-08-16T00:11:39.050Z,13.10
2018-08-16T00:12:39.059Z,13.80
2018-08-16T00:13:39.032Z,13.40
2018-08-16T00:14:39.012Z,13.30
2018-08-16T00:15:39.006Z,13.60
2018-08-16T00:16:39.021Z,13.50
2018-08-16T00:17:38.989Z,13.30
2018-08-16T00:18:38.977Z,13.90
2018-08-16T00:19:38.958Z,13.20
2018-08-16T00:20:38.973Z,13.70
2018-08-16T00:21:38.938Z,14.10
2018-08-16T00:22:38.935Z,13.20
2018-08-16T00:23:38.918Z,13.70
2018-08-16T00:24:38.908Z,13.60
2018-08-16T00:25:38.927Z,13.20
2018-08-16T00:26:38.880Z,14.20
2018-08-16T00:27:38.876Z,13.20
2018-08-16T00:28:38.863Z,13.70
2018-08-16T00:29:38.852Z,13.90
2018-08-16T00:30:38.868Z,13.50
2018-08-16T00:31:38.830Z,13.60
2018-08-16T00:32:38.814Z,13.50
2018-08-16T00:33:38.809Z,14.10
2018-08-16T00:34:38.796Z,13.90
2018-08-16T00:35:39.076Z,13.80
2018-08-16T00:36:38.780Z,13.90
2018-08-16T00:37:38.770Z,14.40
2018-08-16T00:38:38.753Z,14.00
2018-08-16T00:39:38.748Z,14.50
2018-08-16T00:40:38.731Z,14.40
2018-08-16T00:41:38.748Z,14.60
2018-08-16T00:42:38.707Z,14.10
2018-08-16T00:43:38.967Z,14.40
2018-08-16T00:44:38.688Z,14.00
2018-08-16T00:45:38.674Z,14.50
2018-08-16T00:46:38.664Z,14.70
2018-08-16T00:47:38.658Z,13.80
2018-08-16T00:48:38.646Z,14.20
2018-08-16T00:49:38.659Z,13.80
2018-08-16T00:50:38.625Z,13.80
2018-08-16T00:51:38.611Z,14.30
2018-08-16T00:52:38.600Z,14.70
2018-08-16T00:53:38.591Z,14.50
2018-08-16T00:54:38.576Z,14.50
2018-08-16T00:55:38.588Z,14.40
2018-08-16T00:56:38.647Z,14.50
2018-08-16T00:57:38.545Z,14.50
2018-08-16T00:58:38.541Z,14.50
2018-08-16T00:59:38.530Z,14.50
2018-08-16T01:00:38.509Z,15.00
2018-08-16T01:01:38.496Z,15.20
2018-08-16T01:02:38.646Z,13.90
2018-08-16T01:03:38.483Z,14.90
2018-08-16T01:04:38.466Z,14.70
2018-08-16T01:05:38.475Z,15.00
2018-08-16T01:06:38.449Z,14.40
2018-08-16T01:07:38.436Z,15.20
2018-08-16T01:08:38.447Z,14.80
2018-08-16T01:09:38.415Z,14.20
2018-08-16T01:10:38.432Z,14.80
2018-08-16T01:11:38.397Z,14.10
2018-08-16T01:12:38.376Z,15.00
2018-08-16T01:13:38.371Z,14.40
2018-08-16T01:14:38.358Z,15.50
2018-08-16T01:15:38.369Z,14.70
2018-08-16T01:16:38.338Z,15.50
2018-08-16T01:17:38.329Z,15.40
2018-08-16T01:18:38.317Z,15.30
2018-08-16T01:19:38.309Z,16.20
2018-08-16T01:20:38.291Z,15.40
2018-08-16T01:21:38.323Z,15.20
2018-08-16T01:22:38.268Z,14.80
2018-08-16T01:23:38.267Z,14.20
2018-08-16T01:24:38.246Z,14.90
2018-08-16T01:25:38.241Z,14.10
2018-08-16T01:26:38.235Z,14.90
2018-08-16T01:27:38.239Z,14.00
2018-08-16T01:28:38.236Z,14.50
2018-08-16T01:29:38.201Z,14.50
2018-08-16T01:30:38.180Z,14.70
2018-08-16T01:31:38.176Z,15.00
2018-08-16T01:32:38.164Z,14.90
2018-08-16T01:33:38.156Z,14.80
2018-08-16T01:34:38.171Z,14.80
2018-08-16T01:35:38.198Z,14.10
2018-08-16T01:36:38.118Z,14.30
2018-08-16T01:37:38.107Z,14.10
2018-08-16T01:38:38.107Z,14.30
2018-08-16T01:39:38.149Z,14.30
2018-08-16T01:40:38.074Z,13.40
2018-08-16T01:41:38.069Z,14.30
2018-08-16T01:42:38.055Z,14.60
2018-08-16T01:43:38.049Z,14.20
2018-08-16T01:44:38.031Z,14.40
2018-08-16T01:45:38.058Z,14.50
2018-08-16T01:46:38.014Z,15.10
2018-08-16T01:47:38.039Z,14.60
2018-08-16T01:48:37.986Z,15.20
2018-08-16T01:49:37.985Z,14.30
2018-08-16T01:50:37.991Z,14.70
2018-08-16T01:51:37.953Z,14.00
2018-08-16T01:52:37.947Z,15.20
2018-08-16T01:53:37.944Z,14.70
2018-08-16T01:54:37.953Z,13.70
2018-08-16T01:55:37.912Z,14.50
2018-08-16T01:56:37.898Z,14.50
2018-08-16T01:57:37.891Z,14.20
2018-08-16T01:58:37.878Z,14.10
2018-08-16T01:59:37.898Z,14.90
2018-08-16T02:00:37.855Z,14.30
2018-08-16T02:01:37.842Z,14.00
2018-08-16T02:02:37.831Z,14.60
2018-08-16T02:03:37.831Z,14.30
2018-08-16T02:04:37.809Z,13.80
2018-08-16T02:05:37.840Z,14.30
2018-08-16T02:06:37.792Z,14.60
2018-08-16T02:07:37.777Z,14.70
2018-08-16T02:08:37.768Z,14.90
2018-08-16T02:09:37.758Z,14.10
2018-08-16T02:10:37.748Z,14.10
2018-08-16T02:11:37.762Z,15.40
2018-08-16T02:12:37.728Z,14.20
2018-08-16T02:13:37.714Z,14.30
2018-08-16T02:14:37.700Z,13.40
2018-08-16T02:15:37.692Z,13.60
2018-08-16T02:16:37.710Z,15.50
2018-08-16T02:17:37.676Z,14.40
2018-08-16T02:18:37.657Z,14.40
2018-08-16T02:19:37.649Z,14.40
2018-08-16T02:20:37.635Z,14.30
2018-08-16T02:21:37.628Z,15.10
2018-08-16T02:22:37.637Z,14.60
2018-08-16T02:23:37.606Z,14.50
2018-08-16T02:24:37.597Z,14.50
2018-08-16T02:25:37.590Z,14.40
2018-08-16T02:26:37.575Z,14.70
2018-08-16T02:27:37.565Z,14.30
2018-08-16T02:28:37.574Z,14.40
2018-08-16T02:29:37.542Z,14.30
2018-08-16T02:30:37.527Z,14.30
2018-08-16T02:31:37.526Z,14.40
2018-08-16T02:32:37.544Z,14.60
2018-08-16T02:33:37.550Z,14.30
2018-08-16T02:34:37.491Z,14.40
2018-08-16T02:35:37.482Z,14.90
2018-08-16T02:36:37.469Z,14.50
2018-08-16T02:37:37.451Z,13.60
2018-08-16T02:38:37.465Z,14.50
2018-08-16T02:39:37.430Z,14.20
2018-08-16T02:40:37.423Z,13.60
2018-08-16T02:41:37.411Z,13.60
2018-08-16T02:42:37.400Z,13.10
2018-08-16T02:43:37.414Z,14.20
2018-08-16T02:44:37.378Z,15.20
2018-08-16T02:45:37.371Z,14.60
2018-08-16T02:46:37.356Z,13.90
2018-08-16T02:47:37.342Z,14.10
2018-08-16T02:48:37.329Z,14.20
2018-08-16T02:49:37.352Z,14.50
2018-08-16T02:50:37.311Z,14.30
2018-08-16T02:51:37.297Z,14.20
2018-08-16T02:52:37.322Z,13.90
2018-08-16T02:53:37.279Z,14.50
2018-08-16T02:54:37.264Z,14.60
2018-08-16T02:55:37.257Z,14.70
2018-08-16T02:56:37.249Z,13.50
2018-08-16T02:57:37.256Z,14.00
2018-08-16T02:58:37.221Z,14.40
2018-08-16T02:59:37.216Z,13.70
2018-08-16T03:00:37.196Z,13.50
2018-08-16T03:01:37.191Z,13.90
2018-08-16T03:02:37.180Z,14.20
2018-08-16T03:03:37.199Z,12.90
2018-08-16T03:04:37.156Z,13.10
2018-08-16T03:05:37.151Z,13.10
2018-08-16T03:06:37.135Z,13.90
2018-08-16T03:07:37.122Z,14.50
2018-08-16T03:08:37.113Z,14.10
2018-08-16T03:09:37.129Z,13.50
2018-08-16T03:10:37.130Z,14.10
2018-08-16T03:11:37.079Z,13.90
2018-08-16T03:12:37.078Z,13.60
2018-08-16T03:13:37.056Z,13.40
2018-08-16T03:14:37.041Z,14.10
2018-08-16T03:15:37.030Z,14.00
2018-08-16T03:16:37.049Z,14.50
2018-08-16T03:17:37.014Z,14.10
2018-08-16T03:18:36.997Z,14.30
2018-08-16T03:19:37.001Z,13.90
2018-08-16T03:20:36.984Z,14.20
2018-08-16T03:21:36.965Z,14.10
2018-08-16T03:22:36.986Z,14.00
2018-08-16T03:23:36.952Z,13.80
2018-08-16T03:24:36.935Z,13.90
2018-08-16T03:25:36.932Z,14.00
2018-08-16T03:26:36.953Z,14.10
2018-08-16T03:27:36.921Z,14.50
2018-08-16T03:28:36.886Z,14.30
2018-08-16T03:29:36.887Z,14.10
2018-08-16T03:30:57.133Z,14.30
2018-08-16T03:31:36.856Z,14.10
2018-08-16T03:32:36.880Z,13.00
2018-08-16T03:33:36.838Z,13.80
2018-08-16T03:34:36.853Z,14.10
2018-08-16T03:35:36.819Z,13.90
2018-08-16T03:36:36.825Z,13.90
2018-08-16T03:37:36.793Z,14.80
2018-08-16T03:38:36.806Z,14.00
2018-08-16T03:39:36.780Z,14.60
2018-08-16T03:40:36.757Z,14.50
2018-08-16T03:41:36.771Z,14.00
2018-08-16T03:42:36.763Z,13.70
2018-08-16T03:43:36.734Z,13.90
2018-08-16T03:44:36.865Z,14.10
2018-08-16T03:45:36.708Z,14.00
2018-08-16T03:46:36.694Z,13.80
2018-08-16T03:47:36.959Z,14.20
2018-08-16T03:48:36.670Z,14.70
2018-08-16T03:49:36.659Z,14.10
2018-08-16T03:50:36.657Z,14.20
2018-08-16T03:51:36.635Z,13.80
2018-08-16T03:52:36.637Z,14.30
2018-08-16T03:53:36.657Z,14.20
2018-08-16T03:54:36.615Z,13.90
2018-08-16T03:55:36.598Z,14.00
2018-08-16T03:56:36.591Z,14.00
2018-08-16T03:57:36.585Z,13.90
2018-08-16T03:58:36.560Z,13.70
2018-08-16T03:59:36.587Z,13.80
2018-08-16T04:00:36.566Z,13.40
2018-08-16T04:01:36.530Z,13.90
2018-08-16T04:02:36.544Z,13.70
2018-08-16T04:03:36.510Z,13.90
2018-08-16T04:04:36.502Z,14.00
2018-08-16T04:05:36.511Z,13.80
2018-08-16T04:06:36.474Z,14.60
2018-08-16T04:07:36.495Z,14.30
2018-08-16T04:08:36.460Z,13.60
2018-08-16T04:09:36.446Z,14.20
2018-08-16T04:10:36.431Z,13.30
2018-08-16T04:11:36.419Z,13.20
2018-08-16T04:12:36.433Z,15.40
2018-08-16T04:13:36.404Z,14.10
2018-08-16T04:14:36.389Z,14.40
2018-08-16T04:15:36.415Z,15.00
2018-08-16T04:16:36.366Z,13.90
2018-08-16T04:17:36.391Z,14.70
2018-08-16T04:18:36.367Z,14.20
2018-08-16T04:19:36.338Z,14.70
2018-08-16T04:20:36.325Z,14.50
2018-08-16T04:21:36.327Z,14.50
2018-08-16T04:22:36.308Z,14.60
2018-08-16T04:23:36.336Z,14.70
2018-08-16T04:24:36.312Z,14.30
2018-08-16T04:25:36.317Z,14.80
2018-08-16T04:26:36.252Z,13.80
2018-08-16T04:27:36.255Z,15.30
2018-08-16T04:28:36.237Z,15.70
2018-08-16T04:29:36.224Z,16.00
2018-08-16T04:30:36.216Z,15.20
2018-08-16T04:31:36.225Z,15.90
2018-08-16T04:32:36.187Z,16.20
2018-08-16T04:33:36.214Z,15.80
2018-08-16T04:34:36.207Z,15.70
2018-08-16T04:35:36.255Z,16.50
2018-08-16T04:36:36.145Z,15.30
2018-08-16T04:37:36.140Z,14.80
2018-08-16T04:38:36.147Z,14.30
2018-08-16T04:39:36.141Z,14.60
2018-08-16T04:40:36.101Z,14.50
2018-08-16T04:41:36.109Z,13.90
2018-08-16T04:42:36.081Z,14.40
2018-08-16T04:43:36.073Z,15.00
2018-08-16T04:44:36.054Z,14.30
2018-08-16T04:45:36.072Z,14.10
2018-08-16T04:46:36.034Z,14.40
2018-08-16T04:47:36.028Z,15.10
2018-08-16T04:48:36.029Z,13.90
2018-08-16T04:49:36.009Z,14.30
2018-08-16T04:50:36.019Z,13.70
2018-08-16T04:51:35.982Z,14.50
2018-08-16T04:52:35.998Z,14.40
2018-08-16T04:53:35.959Z,14.00
2018-08-16T04:54:35.946Z,14.20
2018-08-16T04:55:35.940Z,13.50
2018-08-16T04:56:35.927Z,15.00
2018-08-16T04:57:35.937Z,15.20
2018-08-16T04:58:35.908Z,14.50
2018-08-16T04:59:35.893Z,15.10
2018-08-16T05:00:35.886Z,14.90
2018-08-16T05:01:35.877Z,14.40
2018-08-16T05:02:35.862Z,14.00
2018-08-16T05:03:35.875Z,15.00
2018-08-16T05:04:35.868Z,15.30
2018-08-16T05:05:35.832Z,14.70
2018-08-16T05:06:35.823Z,14.50
2018-08-16T05:07:35.808Z,14.50
2018-08-16T05:08:35.797Z,14.50
2018-08-16T05:09:35.805Z,14.70
2018-08-16T05:10:35.778Z,15.10
2018-08-16T05:11:35.759Z,14.60
2018-08-16T05:12:35.776Z,15.40
2018-08-16T05:13:35.754Z,15.00
2018-08-16T05:14:35.730Z,15.30
2018-08-16T05:15:35.718Z,13.60
2018-08-16T05:16:35.705Z,14.70
2018-08-16T05:17:35.698Z,15.00
2018-08-16T05:18:35.702Z,14.40
2018-08-16T05:19:35.713Z,15.10
2018-08-16T05:20:35.666Z,13.60
2018-08-16T05:21:35.664Z,14.20
2018-08-16T05:22:35.665Z,14.50
2018-08-16T05:23:35.655Z,15.00
2018-08-16T05:24:35.667Z,14.60
2018-08-16T05:25:35.612Z,14.90
2018-08-16T05:26:35.600Z,14.50
2018-08-16T05:27:35.588Z,14.60
2018-08-16T05:28:35.628Z,13.80
2018-08-16T05:29:35.565Z,14.90
2018-08-16T05:30:35.556Z,14.20
2018-08-16T05:31:35.572Z,14.90
2018-08-16T05:32:35.531Z,14.70
2018-08-16T05:33:35.546Z,13.80
2018-08-16T05:34:35.537Z,15.00
2018-08-16T05:35:35.504Z,15.20
2018-08-16T05:36:35.485Z,15.20
2018-08-16T05:37:35.510Z,14.70
2018-08-16T05:38:35.485Z,14.00
2018-08-16T05:39:35.455Z,13.20
2018-08-16T05:40:35.444Z,14.20
2018-08-16T05:41:35.436Z,13.70
2018-08-16T05:42:35.503Z,15.00
2018-08-16T05:43:35.505Z,14.00
2018-08-16T05:44:35.402Z,13.90
2018-08-16T05:45:35.396Z,14.30
2018-08-16T05:46:35.388Z,15.20
2018-08-16T05:47:35.403Z,13.70
2018-08-16T05:48:35.367Z,13.00
2018-08-16T05:49:35.347Z,13.50
2018-08-16T05:50:35.342Z,13.80
2018-08-16T05:51:35.324Z,14.50
2018-08-16T05:52:35.355Z,13.60
2018-08-16T05:53:35.307Z,14.60
2018-08-16T05:54:35.293Z,14.60
2018-08-16T05:55:35.286Z,14.10
2018-08-16T05:56:35.280Z,14.70
2018-08-16T05:57:35.301Z,15.00
2018-08-16T05:58:35.248Z,13.50
2018-08-16T05:59:35.248Z,14.80
2018-08-16T06:00:35.225Z,14.10
2018-08-16T06:01:35.217Z,14.50
2018-08-16T06:02:35.260Z,14.10
2018-08-16T06:03:35.194Z,15.10
2018-08-16T06:04:35.183Z,14.60
2018-08-16T06:05:35.178Z,15.20
2018-08-16T06:06:35.165Z,15.60
2018-08-16T06:07:35.302Z,14.70
2018-08-16T06:08:35.152Z,14.30
2018-08-16T06:09:35.129Z,13.80
2018-08-16T06:10:35.124Z,14.80
2018-08-16T06:11:35.110Z,15.40
2018-08-16T06:12:35.128Z,13.30
2018-08-16T06:13:35.110Z,11.40
2018-08-16T06:14:35.080Z,13.80
2018-08-16T06:15:35.164Z,13.20
2018-08-16T06:16:35.066Z,13.40
2018-08-16T06:17:35.047Z,13.80
2018-08-16T06:18:35.134Z,10.00
2018-08-16T06:19:35.047Z,13.60
2018-08-16T06:20:35.133Z,13.40
2018-08-16T06:21:35.015Z,13.80
2018-08-16T06:22:34.998Z,11.10
2018-08-16T06:23:34.975Z,10.60
2018-08-16T06:24:34.973Z,12.20
2018-08-16T06:25:34.981Z,13.00
2018-08-16T06:26:34.946Z,12.50
2018-08-16T06:27:34.938Z,13.20
2018-08-16T06:28:34.927Z,12.50
2018-08-16T06:29:34.947Z,10.40
2018-08-16T06:30:34.905Z,12.00
2018-08-16T06:31:34.929Z,11.70
2018-08-16T06:32:34.893Z,13.00
2018-08-16T06:33:34.870Z,12.00
2018-08-16T06:34:34.867Z,13.00
2018-08-16T06:35:34.868Z,13.40
2018-08-16T06:36:34.836Z,11.30
2018-08-16T06:37:34.823Z,13.00
2018-08-16T06:38:34.815Z,13.70
2018-08-16T06:39:34.805Z,14.10
2018-08-16T06:40:35.092Z,13.80
2018-08-16T06:41:34.788Z,12.30
2018-08-16T06:42:34.778Z,11.70
2018-08-16T06:43:34.765Z,12.20
2018-08-16T06:44:34.744Z,13.60
2018-08-16T06:45:34.737Z,12.60
2018-08-16T06:46:35.026Z,10.90
2018-08-16T06:47:34.717Z,11.80
2018-08-16T06:48:34.704Z,13.10
2018-08-16T06:49:34.696Z,11.90
2018-08-16T06:50:34.683Z,10.50
2018-08-16T06:51:34.686Z,11.80
2018-08-16T06:52:34.874Z,12.90
2018-08-16T06:53:34.692Z,10.40
2018-08-16T06:54:34.639Z,12.50
2018-08-16T06:55:34.627Z,12.00
2018-08-16T06:56:34.620Z,12.60
2018-08-16T06:57:34.607Z,13.30
2018-08-16T06:58:34.629Z,12.90
2018-08-16T06:59:34.692Z,11.80
2018-08-16T07:00:34.571Z,11.90
2018-08-16T07:01:34.562Z,11.90
2018-08-16T07:02:34.557Z,11.40
2018-08-16T07:03:34.549Z,9.30
2018-08-16T07:04:34.574Z,12.50
2018-08-16T07:05:34.519Z,9.90
2018-08-16T07:06:34.527Z,12.00
2018-08-16T07:07:34.530Z,10.10
2018-08-16T07:08:34.487Z,10.00
2018-08-16T07:09:34.523Z,9.00
2018-08-16T07:10:34.465Z,10.60
2018-08-16T07:11:34.458Z,9.50
2018-08-16T07:12:34.511Z,10.60
2018-08-16T07:13:34.435Z,10.50
2018-08-16T07:14:34.746Z,12.20
2018-08-16T07:15:34.417Z,12.40
2018-08-16T07:16:34.405Z,9.90
2018-08-16T07:17:34.387Z,11.20
2018-08-16T07:18:34.390Z,9.70
2018-08-16T07:19:34.370Z,11.50
2018-08-16T07:20:34.377Z,10.80
2018-08-16T07:21:34.353Z,8.40
2018-08-16T07:22:34.334Z,8.20
2018-08-16T07:23:34.321Z,7.50
2018-08-16T07:24:34.423Z,9.60
2018-08-16T07:25:34.338Z,11.20
2018-08-16T07:26:34.294Z,10.90
2018-08-16T07:27:34.285Z,7.60
2018-08-16T07:28:34.276Z,12.20
2018-08-16T07:29:34.269Z,8.70
2018-08-16T07:30:34.249Z,9.40
2018-08-16T07:31:34.541Z,9.90
2018-08-16T07:32:34.228Z,11.00
2018-08-16T07:33:34.223Z,10.10
2018-08-16T07:34:34.208Z,10.30
2018-08-16T07:35:34.196Z,9.90
2018-08-16T07:36:34.186Z,9.20
2018-08-16T07:37:34.202Z,8.80
2018-08-16T07:38:34.153Z,9.50
2018-08-16T07:39:34.146Z,9.60
2018-08-16T07:40:34.136Z,6.90
2018-08-16T07:41:34.123Z,10.60
2018-08-16T07:42:34.120Z,7.40
2018-08-16T07:43:34.269Z,8.40
2018-08-16T07:44:34.093Z,8.30
2018-08-16T07:45:34.151Z,8.20
2018-08-16T07:46:34.175Z,7.10
2018-08-16T07:47:34.066Z,8.00
2018-08-16T07:48:34.054Z,8.10
2018-08-16T07:49:34.097Z,7.00
2018-08-16T07:50:34.042Z,6.60
2018-08-16T07:51:34.278Z,6.80
2018-08-16T07:52:34.025Z,8.80
2018-08-16T07:53:33.991Z,6.50
2018-08-16T07:54:33.978Z,8.20
2018-08-16T07:55:34.000Z,7.10
2018-08-16T07:56:33.955Z,8.30
2018-08-16T07:57:33.955Z,6.80
2018-08-16T07:58:34.012Z,7.00
2018-08-16T07:59:33.945Z,7.10
2018-08-16T08:00:33.928Z,7.20
2018-08-16T08:01:33.907Z,7.20
2018-08-16T08:02:33.901Z,7.20
2018-08-16T08:03:33.904Z,7.00
2018-08-16T08:04:33.883Z,8.60
2018-08-16T08:05:33.861Z,7.10
2018-08-16T08:06:33.897Z,7.50
2018-08-16T08:07:33.837Z,9.30
2018-08-16T08:08:33.828Z,7.40
2018-08-16T08:09:33.940Z,9.60
2018-08-16T08:10:33.806Z,8.50
2018-08-16T08:11:33.823Z,8.20
2018-08-16T08:12:33.783Z,7.40
2018-08-16T08:13:33.774Z,7.10
2018-08-16T08:14:33.770Z,6.80
2018-08-16T08:15:33.862Z,9.00
2018-08-16T08:16:33.761Z,8.20
2018-08-16T08:17:33.726Z,6.70
2018-08-16T08:18:33.721Z,9.40
2018-08-16T08:19:33.728Z,7.30
2018-08-16T08:20:33.700Z,7.40
2018-08-16T08:21:33.715Z,7.50
2018-08-16T08:22:33.676Z,7.70
2018-08-16T08:23:33.678Z,6.90
2018-08-16T08:24:33.672Z,6.80
2018-08-16T08:25:33.713Z,7.20
2018-08-16T08:26:33.657Z,7.20
2018-08-16T08:27:33.614Z,7.40
2018-08-16T08:28:33.606Z,8.50
2018-08-16T08:29:33.598Z,7.90
2018-08-16T08:30:33.596Z,8.10
2018-08-16T08:31:33.609Z,7.90
2018-08-16T08:32:33.565Z,7.50
2018-08-16T08:33:33.562Z,8.20
2018-08-16T08:34:33.551Z,7.70
2018-08-16T08:35:33.547Z,8.80
2018-08-16T08:36:33.517Z,7.70
2018-08-16T08:37:33.538Z,7.40
2018-08-16T08:38:33.567Z,7.90
2018-08-16T08:39:33.489Z,7.90
2018-08-16T08:40:33.473Z,7.30
2018-08-16T08:41:33.465Z,7.40
2018-08-16T08:42:33.478Z,7.10
2018-08-16T08:43:33.464Z,7.00
2018-08-16T08:44:33.437Z,7.80
2018-08-16T08:45:33.425Z,7.50
2018-08-16T08:46:33.458Z,7.70
2018-08-16T08:47:33.425Z,7.70
2018-08-16T08:48:33.402Z,7.00
2018-08-16T08:49:33.382Z,7.50
2018-08-16T08:50:33.368Z,7.80
2018-08-16T08:51:33.357Z,7.30
2018-08-16T08:52:33.359Z,6.80
2018-08-16T08:53:33.368Z,6.90
2018-08-16T08:54:33.325Z,7.90
2018-08-16T08:55:33.318Z,7.30
2018-08-16T08:56:33.318Z,7.90
2018-08-16T08:57:33.287Z,7.70
2018-08-16T08:58:33.307Z,8.00
2018-08-16T08:59:33.265Z,8.30
2018-08-16T09:00:33.254Z,7.30
2018-08-16T09:01:33.240Z,8.10
2018-08-16T09:02:33.235Z,7.30
2018-08-16T09:03:33.258Z,7.50
2018-08-16T09:04:33.223Z,7.40
2018-08-16T09:05:33.253Z,7.40
2018-08-16T09:06:33.196Z,8.10
2018-08-16T09:07:33.184Z,7.40
2018-08-16T09:08:33.212Z,10.00
2018-08-16T09:09:33.160Z,8.20
2018-08-16T09:10:33.154Z,7.80
2018-08-16T09:11:33.137Z,8.00
2018-08-16T09:12:33.130Z,8.80
2018-08-16T09:13:33.308Z,7.50
2018-08-16T09:14:33.111Z,8.00
2018-08-16T09:15:33.095Z,9.90
2018-08-16T09:16:33.086Z,10.20
2018-08-16T09:17:33.075Z,8.80
2018-08-16T09:18:33.056Z,8.40
2018-08-16T09:19:33.087Z,7.70
2018-08-16T09:20:33.032Z,8.80
2018-08-16T09:21:33.027Z,7.10
2018-08-16T09:22:33.101Z,8.20
2018-08-16T09:23:33.014Z,9.50
2018-08-16T09:24:33.007Z,9.50
2018-08-16T09:25:32.984Z,8.50
2018-08-16T09:26:32.992Z,7.40
2018-08-16T09:27:32.967Z,7.30
2018-08-16T09:28:33.101Z,7.40
2018-08-16T09:29:32.988Z,8.00
2018-08-16T09:30:32.925Z,8.50
2018-08-16T09:31:32.974Z,7.80
2018-08-16T09:32:32.921Z,7.90
2018-08-16T09:33:32.897Z,10.20
2018-08-16T09:34:32.917Z,11.20
2018-08-16T09:35:32.877Z,8.50
2018-08-16T09:36:32.867Z,8.50
2018-08-16T09:37:32.879Z,7.70
2018-08-16T09:38:32.836Z,8.40
2018-08-16T09:39:32.970Z,7.70
2018-08-16T09:40:32.828Z,7.80
2018-08-16T09:41:32.806Z,8.00
2018-08-16T09:42:32.825Z,8.00
2018-08-16T09:43:33.059Z,8.70
2018-08-16T09:44:32.785Z,7.70
2018-08-16T09:45:32.816Z,8.20
2018-08-16T09:46:32.760Z,9.60
2018-08-16T09:47:32.737Z,8.60
2018-08-16T09:48:32.736Z,10.80
2018-08-16T09:49:32.746Z,9.90
2018-08-16T09:50:32.707Z,8.60
2018-08-16T09:51:32.763Z,7.70
2018-08-16T09:52:32.686Z,7.90
2018-08-16T09:53:32.698Z,7.70
2018-08-16T09:54:32.679Z,7.70
2018-08-16T09:55:32.927Z,8.80
2018-08-16T09:56:32.638Z,7.90
2018-08-16T09:57:32.632Z,8.80
2018-08-16T09:58:32.617Z,8.40
2018-08-16T09:59:32.607Z,8.80
2018-08-16T10:00:32.603Z,8.90
2018-08-16T10:01:32.848Z,8.50
2018-08-16T10:02:32.573Z,8.20
2018-08-16T10:03:32.568Z,8.30
2018-08-16T10:04:32.566Z,8.10
2018-08-16T10:05:32.539Z,8.40
2018-08-16T10:06:32.536Z,8.30
2018-08-16T10:07:32.549Z,8.10
2018-08-16T10:08:32.506Z,8.50
2018-08-16T10:09:32.536Z,7.80
2018-08-16T10:10:32.489Z,8.10
2018-08-16T10:11:32.476Z,7.60
2018-08-16T10:12:32.465Z,8.30
2018-08-16T10:13:32.479Z,8.60
2018-08-16T10:14:32.445Z,8.00
2018-08-16T10:15:32.460Z,7.50
2018-08-16T10:16:32.419Z,8.00
2018-08-16T10:17:32.416Z,8.00
2018-08-16T10:18:32.403Z,8.10
2018-08-16T10:19:32.390Z,8.40
2018-08-16T10:20:32.406Z,8.40
2018-08-16T10:21:32.370Z,8.90
2018-08-16T10:22:32.357Z,8.60
2018-08-16T10:23:32.343Z,9.50
2018-08-16T10:24:32.332Z,8.50
2018-08-16T10:25:32.321Z,7.80
2018-08-16T10:26:32.332Z,8.40
2018-08-16T10:27:32.587Z,8.70
2018-08-16T10:28:32.290Z,8.30
2018-08-16T10:29:32.280Z,8.70
2018-08-16T10:30:32.267Z,8.80
2018-08-16T10:31:32.259Z,8.90
2018-08-16T10:32:32.263Z,10.30
2018-08-16T10:33:32.260Z,8.90
2018-08-16T10:34:32.230Z,8.60
2018-08-16T10:35:32.214Z,8.20
2018-08-16T10:36:32.203Z,8.30
2018-08-16T10:37:32.192Z,8.10
2018-08-16T10:38:32.209Z,8.50
2018-08-16T10:39:32.180Z,8.40
2018-08-16T10:40:32.159Z,9.20
2018-08-16T10:41:32.151Z,9.00
2018-08-16T10:42:32.416Z,8.50
2018-08-16T10:43:32.136Z,8.20
2018-08-16T10:44:32.131Z,8.30
2018-08-16T10:45:32.113Z,8.50
2018-08-16T10:46:32.097Z,8.40
2018-08-16T10:47:32.085Z,8.80
2018-08-16T10:48:32.096Z,8.30
2018-08-16T10:49:32.064Z,7.80
2018-08-16T10:50:32.052Z,8.00
2018-08-16T10:51:32.065Z,8.60
2018-08-16T10:52:32.046Z,8.10
2018-08-16T10:53:32.022Z,8.50
2018-08-16T10:54:32.081Z,8.60
2018-08-16T10:55:31.996Z,8.40
2018-08-16T10:56:31.988Z,9.20
2018-08-16T10:57:31.974Z,9.70
2018-08-16T10:58:31.960Z,9.30
2018-08-16T10:59:31.956Z,8.60
2018-08-16T11:00:31.974Z,9.40
2018-08-16T11:01:31.925Z,8.80
2018-08-16T11:02:31.928Z,8.20
2018-08-16T11:03:31.911Z,8.00
2018-08-16T11:04:32.067Z,8.20
2018-08-16T11:05:31.888Z,8.40
2018-08-16T11:06:31.880Z,8.20
2018-08-16T11:07:31.895Z,8.60
2018-08-16T11:08:31.863Z,8.70
2018-08-16T11:09:31.850Z,10.80
2018-08-16T11:10:31.856Z,9.00
2018-08-16T11:11:31.824Z,9.50
2018-08-16T11:12:31.819Z,8.90
2018-08-16T11:13:31.803Z,9.70
2018-08-16T11:14:31.792Z,8.40
2018-08-16T11:15:31.786Z,11.00
2018-08-16T11:16:32.062Z,8.70
2018-08-16T11:17:31.760Z,8.80
2018-08-16T11:18:31.740Z,8.90
2018-08-16T11:19:31.734Z,9.30
2018-08-16T11:20:31.717Z,8.90
2018-08-16T11:21:31.720Z,8.90
2018-08-16T11:22:31.728Z,8.60
2018-08-16T11:23:31.691Z,8.40
2018-08-16T11:24:31.710Z,8.70
2018-08-16T11:25:31.666Z,9.00
2018-08-16T11:26:31.706Z,8.60
2018-08-16T11:27:31.645Z,8.60
2018-08-16T11:28:31.630Z,8.70
2018-08-16T11:29:31.673Z,9.10
2018-08-16T11:30:31.649Z,8.80
2018-08-16T11:31:31.598Z,8.50
2018-08-16T11:32:31.588Z,9.20
2018-08-16T11:33:31.583Z,8.30
2018-08-16T11:34:31.598Z,8.90
2018-08-16T11:35:31.551Z,8.80
2018-08-16T11:36:31.546Z,8.60
2018-08-16T11:37:31.537Z,8.90
2018-08-16T11:38:31.519Z,8.70
2018-08-16T11:39:31.517Z,8.90
2018-08-16T11:40:31.531Z,8.70
2018-08-16T11:41:31.488Z,8.40
2018-08-16T11:42:31.475Z,8.40
2018-08-16T11:43:31.464Z,8.70
2018-08-16T11:44:31.456Z,8.60
2018-08-16T11:45:31.477Z,8.40
2018-08-16T11:46:31.626Z,8.50
2018-08-16T11:47:31.435Z,9.20
2018-08-16T11:48:31.416Z,8.70
2018-08-16T11:49:31.411Z,8.80
2018-08-16T11:50:31.385Z,8.60
2018-08-16T11:51:31.390Z,9.70
2018-08-16T11:52:31.396Z,8.90
2018-08-16T11:53:31.354Z,9.20
2018-08-16T11:54:31.349Z,9.10
2018-08-16T11:55:31.336Z,9.30
2018-08-16T11:56:31.356Z,9.60
2018-08-16T11:57:31.329Z,9.30
2018-08-16T11:58:31.351Z,9.60
2018-08-16T11:59:31.297Z,9.40
2018-08-16T12:00:31.281Z,9.30
2018-08-16T12:01:31.272Z,9.10
2018-08-16T12:02:31.284Z,9.20
2018-08-16T12:03:31.257Z,8.80
2018-08-16T12:04:31.247Z,8.70
2018-08-16T12:05:31.285Z,9.50
2018-08-16T12:06:31.215Z,9.40
2018-08-16T12:07:31.253Z,8.90
2018-08-16T12:08:31.224Z,8.80
2018-08-16T12:09:31.190Z,9.50
2018-08-16T12:10:31.206Z,9.20
2018-08-16T12:11:31.159Z,9.30
2018-08-16T12:12:31.147Z,9.50
2018-08-16T12:13:31.140Z,9.50
2018-08-16T12:14:31.134Z,9.10
2018-08-16T12:15:31.242Z,8.80
2018-08-16T12:16:31.128Z,9.20
2018-08-16T12:17:31.098Z,9.40
2018-08-16T12:18:31.080Z,9.20
2018-08-16T12:19:31.340Z,8.90
2018-08-16T12:20:31.059Z,9.10
2018-08-16T12:21:31.058Z,9.30
2018-08-16T12:22:31.036Z,9.10
2018-08-16T12:23:31.026Z,8.90
2018-08-16T12:24:31.023Z,9.40
2018-08-16T12:25:31.032Z,9.20
2018-08-16T12:26:30.996Z,9.60
2018-08-16T12:27:30.993Z,9.30
2018-08-16T12:28:30.989Z,9.00
2018-08-16T12:29:30.966Z,10.30
2018-08-16T12:30:30.957Z,9.80
2018-08-16T12:31:30.973Z,9.90
2018-08-16T12:32:30.929Z,9.40
2018-08-16T12:33:31.065Z,9.20
2018-08-16T12:34:30.904Z,9.40
2018-08-16T12:35:30.896Z,9.50
2018-08-16T12:36:30.882Z,9.10
2018-08-16T12:37:30.879Z,9.60
2018-08-16T12:38:30.871Z,9.50
2018-08-16T12:39:30.879Z,9.50
2018-08-16T12:40:30.849Z,9.40
2018-08-16T12:41:30.827Z,9.10
2018-08-16T12:42:30.824Z,8.80
2018-08-16T12:43:30.831Z,9.40
2018-08-16T12:44:30.792Z,9.80
2018-08-16T12:45:30.786Z,9.30
2018-08-16T12:46:30.818Z,9.40
2018-08-16T12:47:30.768Z,9.80
2018-08-16T12:48:30.751Z,9.30
2018-08-16T12:49:30.752Z,9.30
2018-08-16T12:50:30.758Z,9.00
2018-08-16T12:51:30.774Z,8.90
2018-08-16T12:52:30.714Z,9.10
2018-08-16T12:53:30.701Z,8.90
2018-08-16T12:54:30.683Z,9.10
2018-08-16T12:55:30.678Z,9.20
2018-08-16T12:56:30.687Z,9.30
2018-08-16T12:57:30.956Z,9.20
2018-08-16T12:58:30.655Z,9.50
2018-08-16T12:59:30.631Z,9.10
2018-08-16T13:00:30.631Z,8.60
2018-08-16T13:01:30.607Z,8.90
2018-08-16T13:02:30.597Z,9.20
2018-08-16T13:03:30.630Z,8.90